Terminal Aerodrome Forecast
Issued by NWS

Home | Current Version | Previous Version | Text Only | Print | Product List | Glossary On
Versions: 1 2 3 4 5 6 7 8 9 10 11 12 13 14 15
060
FTUS46 KSTO 281734
TAFSAC
TAF
KSAC 281734Z 2818/2918 34020G30KT P6SM SKC
     FM290300 33010KT P6SM SKC=

USA.gov is the U.S. government's official web portal to all federal, state and local government web resources and services.